createdAt,value
2023-12-09T00:00:32.580Z,99.34
2023-12-09T00:03:00.225Z,98.71
2023-12-09T00:05:27.761Z,99.18
2023-12-09T00:07:56.733Z,99.71
2023-12-09T00:10:24.297Z,99.23
2023-12-09T00:12:51.827Z,98.82
2023-12-09T00:15:19.402Z,99.28
2023-12-09T00:17:47.149Z,99.03
2023-12-09T00:20:14.704Z,99.63
2023-12-09T00:22:42.993Z,99.45
2023-12-09T00:25:11.856Z,99.80
2023-12-09T00:27:39.847Z,99.46
2023-12-09T00:30:08.887Z,99.66
2023-12-09T00:32:36.617Z,99.19
2023-12-09T00:35:04.631Z,99.55
2023-12-09T00:37:32.404Z,98.94
2023-12-09T00:39:59.920Z,99.08
2023-12-09T00:42:29.137Z,99.61
2023-12-09T00:44:56.875Z,99.16
2023-12-09T00:47:24.473Z,99.18
2023-12-09T00:49:52.152Z,99.66
2023-12-09T00:52:19.798Z,99.50
2023-12-09T00:54:47.318Z,99.74
2023-12-09T00:57:15.155Z,98.79
2023-12-09T00:59:44.094Z,99.77
2023-12-09T01:02:11.687Z,99.35
2023-12-09T01:04:39.359Z,99.28
2023-12-09T01:07:06.926Z,99.26
2023-12-09T01:09:34.489Z,98.71
2023-12-09T01:12:02.314Z,99.08
2023-12-09T01:14:29.961Z,98.59
2023-12-09T01:16:58.857Z,98.86
2023-12-09T01:19:26.438Z,99.56
2023-12-09T01:21:54.153Z,99.26
2023-12-09T01:24:21.827Z,98.98
2023-12-09T01:26:49.873Z,99.10
2023-12-09T01:29:17.461Z,99.52
2023-12-09T01:31:45.010Z,99.67
2023-12-09T01:34:14.112Z,99.46
2023-12-09T01:36:41.700Z,98.67
2023-12-09T01:39:10.329Z,99.42
2023-12-09T01:41:38.687Z,99.19
2023-12-09T01:44:06.297Z,99.64
2023-12-09T01:46:35.514Z,99.14
2023-12-09T01:49:03.480Z,99.39
2023-12-09T01:51:32.712Z,99.06
2023-12-09T01:54:00.569Z,99.65
2023-12-09T01:56:29.174Z,99.31
2023-12-09T01:58:56.815Z,99.50
2023-12-09T02:01:25.896Z,99.71
2023-12-09T02:03:53.798Z,99.47
2023-12-09T02:06:21.518Z,99.61
2023-12-09T02:08:50.437Z,99.59
2023-12-09T02:11:23.857Z,99.20
2023-12-09T02:13:58.905Z,99.67
2023-12-09T02:16:31.155Z,99.53
2023-12-09T02:18:59.545Z,99.50
2023-12-09T02:21:27.188Z,99.23
2023-12-09T02:23:56.155Z,99.33
2023-12-09T02:26:27.290Z,99.99
2023-12-09T02:28:59.166Z,99.97
2023-12-09T02:31:30.022Z,99.33
2023-12-09T02:33:58.093Z,99.51
2023-12-09T02:36:26.770Z,99.44
2023-12-09T02:38:56.862Z,99.74
2023-12-09T02:41:25.999Z,99.28
2023-12-09T02:43:53.561Z,98.76
2023-12-09T02:46:21.191Z,99.20
2023-12-09T02:48:48.806Z,99.58
2023-12-09T02:51:16.449Z,98.97
2023-12-09T02:53:45.359Z,99.42
2023-12-09T02:56:14.232Z,99.37
2023-12-09T02:58:41.772Z,99.77
2023-12-09T03:01:09.385Z,98.87
2023-12-09T03:03:36.976Z,99.49
2023-12-09T03:06:04.874Z,99.62
2023-12-09T03:08:32.402Z,99.38
2023-12-09T03:10:59.935Z,99.05
2023-12-09T03:13:28.846Z,99.53
2023-12-09T03:15:56.420Z,99.38
2023-12-09T03:18:24.283Z,99.37
2023-12-09T03:20:51.908Z,98.98
2023-12-09T03:23:18.481Z,98.86
2023-12-09T03:25:46.143Z,98.63
2023-12-09T03:28:14.177Z,99.18
2023-12-09T03:30:43.103Z,99.35
2023-12-09T03:33:10.805Z,99.16
2023-12-09T03:35:38.541Z,98.91
2023-12-09T03:38:06.267Z,98.90
2023-12-09T03:40:33.867Z,99.20
2023-12-09T03:43:01.448Z,99.45
2023-12-09T03:45:29.074Z,99.32
2023-12-09T03:47:58.234Z,99.84
2023-12-09T03:50:25.855Z,99.42
2023-12-09T03:52:53.600Z,100.00
2023-12-09T03:55:21.193Z,99.79
2023-12-09T03:57:50.006Z,99.31
2023-12-09T04:00:18.079Z,99.72
2023-12-09T04:02:45.692Z,99.48
2023-12-09T04:05:15.288Z,99.48
2023-12-09T04:07:42.872Z,99.40
2023-12-09T04:10:11.211Z,99.47
2023-12-09T04:12:38.800Z,99.18
2023-12-09T04:15:07.466Z,99.48
2023-12-09T04:17:35.077Z,99.61
2023-12-09T04:20:03.895Z,99.28
2023-12-09T04:22:33.046Z,99.27
2023-12-09T04:25:00.602Z,99.26
2023-12-09T04:27:28.245Z,99.12
2023-12-09T04:29:55.802Z,98.68
2023-12-09T04:32:23.493Z,98.89
2023-12-09T04:34:51.071Z,99.35
2023-12-09T04:37:18.637Z,99.34
2023-12-09T04:39:47.555Z,99.22
2023-12-09T04:42:15.178Z,99.17
2023-12-09T04:44:42.754Z,99.35
2023-12-09T04:47:10.563Z,99.06
2023-12-09T04:49:38.282Z,99.00
2023-12-09T04:52:06.693Z,98.81
2023-12-09T04:54:34.378Z,99.30
2023-12-09T04:57:03.476Z,99.63
2023-12-09T04:59:31.103Z,99.33
2023-12-09T05:01:58.667Z,99.66
2023-12-09T05:04:26.416Z,99.33
2023-12-09T05:06:54.153Z,99.05
2023-12-09T05:09:23.522Z,99.71
2023-12-09T05:11:51.065Z,99.41
2023-12-09T05:14:19.976Z,99.29
2023-12-09T05:16:48.217Z,99.35
2023-12-09T05:19:15.812Z,98.91
2023-12-09T05:21:43.642Z,99.74
2023-12-09T05:24:11.692Z,99.39
2023-12-09T05:26:39.265Z,99.41
2023-12-09T05:29:07.882Z,99.21
2023-12-09T05:31:36.890Z,99.26
2023-12-09T05:34:05.152Z,99.45
2023-12-09T05:36:32.891Z,99.42
2023-12-09T05:39:00.625Z,99.64
2023-12-09T05:41:28.244Z,99.45
2023-12-09T05:43:55.824Z,99.52
2023-12-09T05:46:23.472Z,99.53
2023-12-09T05:48:52.569Z,99.63
2023-12-09T05:51:20.554Z,99.35
2023-12-09T05:53:48.185Z,99.68
2023-12-09T05:56:15.787Z,99.07
2023-12-09T05:58:43.386Z,99.79
2023-12-09T06:01:11.347Z,99.21
2023-12-09T06:03:39.235Z,99.12
2023-12-09T06:06:09.128Z,99.45
2023-12-09T06:08:36.760Z,99.79
2023-12-09T06:11:04.802Z,99.57
2023-12-09T06:13:32.952Z,99.58
2023-12-09T06:16:00.532Z,99.34
2023-12-09T06:18:28.231Z,99.45
2023-12-09T06:20:55.847Z,99.08
2023-12-09T06:23:24.865Z,99.60
2023-12-09T06:25:52.393Z,99.79
2023-12-09T06:28:19.974Z,99.66
2023-12-09T06:30:47.691Z,99.49
2023-12-09T06:33:15.324Z,99.12
2023-12-09T06:35:43.141Z,99.26
2023-12-09T06:38:10.757Z,99.82
2023-12-09T06:40:39.693Z,99.30
2023-12-09T06:43:07.479Z,99.76
2023-12-09T06:45:35.083Z,99.66
2023-12-09T06:48:02.891Z,100.00
2023-12-09T06:50:30.584Z,99.70
2023-12-09T06:52:58.138Z,99.76
2023-12-09T06:55:25.904Z,99.33
2023-12-09T06:57:54.988Z,99.78
2023-12-09T07:00:22.954Z,99.42
2023-12-09T07:02:58.758Z,99.38
2023-12-09T07:05:28.334Z,99.38
2023-12-09T07:07:56.471Z,99.22
2023-12-09T07:10:24.045Z,99.35
2023-12-09T07:12:51.664Z,98.87
2023-12-09T07:15:21.585Z,99.34
2023-12-09T07:17:49.244Z,99.37
2023-12-09T07:20:17.050Z,99.50
2023-12-09T07:22:44.819Z,99.09
2023-12-09T07:25:12.402Z,99.68
2023-12-09T07:27:39.999Z,99.38
2023-12-09T07:30:08.894Z,99.23
2023-12-09T07:32:37.983Z,99.45
2023-12-09T07:35:06.757Z,99.11
2023-12-09T07:37:34.385Z,99.48
2023-12-09T07:40:01.948Z,99.27
2023-12-09T07:42:29.719Z,99.42
2023-12-09T07:44:57.497Z,99.22
2023-12-09T07:47:25.061Z,98.65
2023-12-09T07:49:54.020Z,98.85
2023-12-09T07:52:21.689Z,98.70
2023-12-09T07:54:49.261Z,98.43
2023-12-09T07:57:16.912Z,98.83
2023-12-09T07:59:44.533Z,99.11
2023-12-09T08:02:12.086Z,99.01
2023-12-09T08:04:40.184Z,99.13
2023-12-09T08:07:09.154Z,99.20
2023-12-09T08:09:36.879Z,98.45
2023-12-09T08:12:04.841Z,98.79
2023-12-09T08:14:32.457Z,98.37
2023-12-09T08:17:00.051Z,98.58
2023-12-09T08:19:27.773Z,98.68
2023-12-09T08:21:55.890Z,98.20
2023-12-09T08:24:24.883Z,98.22
2023-12-09T08:26:52.569Z,98.17
2023-12-09T08:29:21.414Z,97.94
2023-12-09T08:31:50.619Z,97.98
2023-12-09T08:34:18.373Z,98.46
2023-12-09T08:36:46.208Z,98.38
2023-12-09T08:39:15.320Z,98.17
2023-12-09T08:41:44.322Z,97.40
2023-12-09T08:44:11.956Z,97.81
2023-12-09T08:46:39.515Z,97.60
2023-12-09T08:49:07.234Z,97.37
2023-12-09T08:51:45.026Z,97.73
2023-12-09T08:54:12.757Z,97.17
2023-12-09T08:56:40.425Z,97.48
2023-12-09T08:59:11.186Z,96.93
2023-12-09T09:01:39.304Z,96.63
2023-12-09T09:04:07.431Z,96.61
2023-12-09T09:06:35.315Z,96.55
2023-12-09T09:09:02.929Z,96.48
2023-12-09T09:11:30.535Z,96.03
2023-12-09T09:13:58.054Z,95.58
2023-12-09T09:16:28.554Z,96.03
2023-12-09T09:18:56.865Z,95.29
2023-12-09T09:21:24.886Z,95.82
2023-12-09T09:23:52.493Z,95.60
2023-12-09T09:26:20.292Z,95.39
2023-12-09T09:28:47.918Z,95.80
2023-12-09T09:31:15.636Z,95.61
2023-12-09T09:33:44.640Z,95.42
2023-12-09T09:36:12.515Z,94.74
2023-12-09T09:38:40.347Z,95.64
2023-12-09T09:41:09.637Z,95.03
2023-12-09T09:43:40.793Z,94.46
2023-12-09T09:46:09.298Z,94.96
2023-12-09T09:48:39.311Z,95.10
2023-12-09T09:51:08.537Z,95.12
2023-12-09T09:53:38.576Z,94.61
2023-12-09T09:56:08.124Z,94.31
2023-12-09T09:58:36.246Z,95.29
2023-12-09T10:01:05.722Z,95.14
2023-12-09T10:03:33.498Z,95.54
2023-12-09T10:06:01.419Z,95.74
2023-12-09T10:08:32.128Z,95.94
2023-12-09T10:10:59.940Z,95.99
2023-12-09T10:13:27.565Z,95.87
2023-12-09T10:15:55.234Z,95.50
2023-12-09T10:18:23.246Z,95.06
2023-12-09T10:20:51.198Z,94.85
2023-12-09T10:23:18.863Z,95.20
2023-12-09T10:25:50.109Z,95.54
2023-12-09T10:28:17.691Z,95.33
2023-12-09T10:30:45.377Z,95.34
2023-12-09T10:33:13.445Z,94.88
2023-12-09T10:35:41.413Z,94.92
2023-12-09T10:38:10.675Z,95.73
2023-12-09T10:40:38.414Z,94.61
2023-12-09T10:43:07.345Z,94.81
2023-12-09T10:45:35.620Z,94.81
2023-12-09T10:48:04.495Z,94.33
2023-12-09T10:50:32.553Z,94.36
2023-12-09T10:53:00.203Z,94.37
2023-12-09T10:55:27.812Z,94.58
2023-12-09T10:57:56.049Z,94.88
2023-12-09T11:00:26.083Z,94.30
2023-12-09T11:02:54.139Z,93.66
2023-12-09T11:05:23.123Z,94.18
2023-12-09T11:07:51.041Z,93.45
2023-12-09T11:10:19.393Z,94.14
2023-12-09T11:12:49.234Z,94.90
2023-12-09T11:15:23.477Z,94.53
2023-12-09T11:17:55.153Z,94.88
2023-12-09T11:20:24.088Z,94.59
2023-12-09T11:22:51.811Z,94.75
2023-12-09T11:25:23.618Z,94.58
2023-12-09T11:27:52.388Z,94.53
2023-12-09T11:30:34.767Z,93.94
2023-12-09T11:33:04.408Z,94.99
2023-12-09T11:35:32.808Z,94.23
2023-12-09T11:38:01.355Z,94.38
2023-12-09T11:40:29.716Z,94.00
2023-12-09T11:42:59.174Z,94.64
2023-12-09T11:45:27.105Z,94.57
2023-12-09T11:47:57.746Z,94.24
2023-12-09T11:50:29.031Z,94.57
2023-12-09T11:52:56.879Z,94.63
2023-12-09T11:55:24.602Z,95.05
2023-12-09T11:57:52.187Z,94.66
2023-12-09T12:00:20.568Z,95.16
2023-12-09T12:02:49.493Z,95.20
2023-12-09T12:05:17.454Z,95.47
2023-12-09T12:07:46.534Z,95.03
2023-12-09T12:10:15.775Z,95.41
2023-12-09T12:12:44.751Z,94.96
2023-12-09T12:15:12.618Z,95.46
2023-12-09T12:17:41.650Z,95.41
2023-12-09T12:20:11.982Z,95.20
2023-12-09T12:22:41.525Z,95.26
2023-12-09T12:25:11.373Z,95.74
2023-12-09T12:27:44.068Z,95.75
2023-12-09T12:30:11.966Z,95.86
2023-12-09T12:32:40.023Z,96.08
2023-12-09T12:35:08.461Z,96.49
2023-12-09T12:37:36.062Z,96.52
2023-12-09T12:40:04.799Z,96.83
2023-12-09T12:42:34.078Z,96.73
2023-12-09T12:45:04.509Z,96.95
2023-12-09T12:47:32.169Z,96.84
2023-12-09T12:49:59.846Z,97.06
2023-12-09T12:52:27.716Z,96.73
2023-12-09T12:54:55.405Z,96.75
2023-12-09T12:57:23.005Z,97.33
2023-12-09T12:59:53.833Z,97.38
2023-12-09T13:02:23.429Z,97.20
2023-12-09T13:04:51.051Z,97.24
2023-12-09T13:07:19.217Z,97.75
2023-12-09T13:09:46.797Z,97.19
2023-12-09T13:12:14.466Z,97.60
2023-12-09T13:14:42.105Z,97.46
2023-12-09T13:17:11.168Z,97.15
2023-12-09T13:19:38.963Z,97.88
2023-12-09T13:22:06.698Z,97.76
2023-12-09T13:24:34.305Z,98.13
2023-12-09T13:27:01.990Z,98.08
2023-12-09T13:29:29.556Z,98.50
2023-12-09T13:31:57.401Z,98.11
2023-12-09T13:34:28.046Z,98.44
2023-12-09T13:36:56.101Z,98.33
2023-12-09T13:39:26.760Z,97.79
2023-12-09T13:41:54.494Z,98.10
2023-12-09T13:44:22.082Z,98.44
2023-12-09T13:46:49.661Z,97.81
2023-12-09T13:49:17.668Z,98.11
2023-12-09T13:51:47.332Z,98.30
2023-12-09T13:54:14.992Z,98.10
2023-12-09T13:56:42.698Z,98.34
2023-12-09T13:59:10.343Z,98.19
2023-12-09T14:01:38.000Z,98.15
2023-12-09T14:04:06.495Z,98.19
2023-12-09T14:06:34.257Z,98.22
2023-12-09T14:09:03.434Z,98.52
2023-12-09T14:11:32.255Z,98.34
2023-12-09T14:13:59.844Z,98.70
2023-12-09T14:16:27.558Z,98.47
2023-12-09T14:18:55.653Z,98.46
2023-12-09T14:21:23.952Z,97.99
2023-12-09T14:23:51.547Z,98.19
2023-12-09T14:26:20.622Z,98.33
2023-12-09T14:28:48.214Z,98.51
2023-12-09T14:31:15.785Z,98.14
2023-12-09T14:33:43.551Z,98.02
2023-12-09T14:36:11.924Z,98.76
2023-12-09T14:38:39.585Z,98.30
2023-12-09T14:41:07.472Z,98.51
2023-12-09T14:43:36.389Z,98.45
2023-12-09T14:46:04.122Z,98.79
2023-12-09T14:48:32.888Z,98.78
2023-12-09T14:51:00.693Z,99.10
2023-12-09T14:53:28.217Z,98.39
2023-12-09T14:55:56.024Z,99.44
2023-12-09T14:58:23.552Z,99.06
2023-12-09T15:00:52.533Z,99.04
2023-12-09T15:03:20.253Z,99.09
2023-12-09T15:05:48.170Z,98.76
2023-12-09T15:08:15.800Z,99.39
2023-12-09T15:10:43.430Z,98.79
2023-12-09T15:13:11.057Z,98.80
2023-12-09T15:15:38.759Z,99.00
2023-12-09T15:18:07.795Z,98.87
2023-12-09T15:20:35.422Z,98.83
2023-12-09T15:23:02.982Z,98.89
2023-12-09T15:25:30.561Z,99.39
2023-12-09T15:27:58.136Z,99.31
2023-12-09T15:30:25.787Z,99.36
2023-12-09T15:32:53.457Z,99.62
2023-12-09T15:35:22.373Z,99.26
2023-12-09T15:37:49.976Z,99.15
2023-12-09T15:40:17.699Z,99.44
2023-12-09T15:42:45.450Z,99.49
2023-12-09T15:45:13.211Z,99.40
2023-12-09T15:47:40.921Z,99.48
2023-12-09T15:50:10.114Z,99.81
2023-12-09T15:52:39.040Z,99.68
2023-12-09T15:55:07.243Z,99.99
2023-12-09T15:57:34.882Z,99.45
2023-12-09T16:00:02.570Z,99.53
2023-12-09T16:02:30.400Z,99.94
2023-12-09T16:04:58.221Z,100.00
2023-12-09T16:07:26.080Z,99.93
2023-12-09T16:09:58.187Z,100.00
2023-12-09T16:12:26.806Z,100.00
2023-12-09T16:14:55.148Z,99.93
2023-12-09T16:17:22.935Z,100.00
2023-12-09T16:19:51.205Z,100.00
2023-12-09T16:22:18.857Z,100.00
2023-12-09T16:24:48.190Z,100.00
2023-12-09T16:27:17.424Z,100.00
2023-12-09T16:29:45.053Z,100.00
2023-12-09T16:32:12.631Z,100.00
2023-12-09T16:34:40.428Z,100.00
2023-12-09T16:37:08.152Z,100.00
2023-12-09T16:39:35.828Z,100.00
2023-12-09T16:42:03.694Z,100.00
2023-12-09T16:44:32.712Z,100.00
2023-12-09T16:47:00.303Z,100.00
2023-12-09T16:49:28.076Z,100.00
2023-12-09T16:51:55.753Z,100.00
2023-12-09T16:54:24.411Z,100.00
2023-12-09T16:56:52.441Z,100.00
2023-12-09T16:59:20.061Z,100.00
2023-12-09T17:01:49.065Z,100.00
2023-12-09T17:04:16.772Z,100.00
2023-12-09T17:06:44.533Z,100.00
2023-12-09T17:09:12.150Z,100.00
2023-12-09T17:11:39.905Z,100.00
2023-12-09T17:14:07.465Z,100.00
2023-12-09T17:16:35.041Z,100.00
2023-12-09T17:19:06.859Z,100.00
2023-12-09T17:21:34.693Z,100.00
2023-12-09T17:24:02.371Z,100.00
2023-12-09T17:26:30.480Z,100.00
2023-12-09T17:28:58.164Z,100.00
2023-12-09T17:31:26.171Z,100.00
2023-12-09T17:33:53.835Z,100.00
2023-12-09T17:36:24.266Z,100.00
2023-12-09T17:38:51.946Z,100.00
2023-12-09T17:41:20.234Z,100.00
2023-12-09T17:43:47.921Z,100.00
2023-12-09T17:46:15.490Z,100.00
2023-12-09T17:48:43.290Z,100.00
2023-12-09T17:51:11.195Z,100.00
2023-12-09T17:53:40.145Z,100.00
2023-12-09T17:56:08.672Z,100.00
2023-12-09T17:58:36.228Z,100.00
2023-12-09T18:01:02.948Z,100.00
2023-12-09T18:03:30.704Z,99.99
2023-12-09T18:05:58.496Z,99.87
2023-12-09T18:08:26.214Z,100.00
2023-12-09T18:10:55.596Z,100.00
2023-12-09T18:13:23.247Z,100.00
2023-12-09T18:15:51.279Z,100.00
2023-12-09T18:18:19.021Z,100.00
2023-12-09T18:20:48.109Z,99.76
2023-12-09T18:23:15.673Z,99.91
2023-12-09T18:25:43.335Z,99.62
2023-12-09T18:28:12.275Z,100.00
2023-12-09T18:30:40.120Z,99.70
2023-12-09T18:33:07.761Z,99.61
2023-12-09T18:35:35.356Z,99.18
2023-12-09T18:38:03.406Z,99.43
2023-12-09T18:40:30.980Z,99.47
2023-12-09T18:43:00.332Z,99.60
2023-12-09T18:45:29.371Z,99.23
2023-12-09T18:47:57.171Z,99.70
2023-12-09T18:50:25.082Z,99.40
2023-12-09T18:52:56.555Z,99.14
2023-12-09T18:55:24.203Z,99.25
2023-12-09T18:57:51.922Z,99.57
2023-12-09T19:00:20.063Z,99.72
2023-12-09T19:02:49.130Z,99.41
2023-12-09T19:05:16.981Z,99.23
2023-12-09T19:07:44.583Z,99.17
2023-12-09T19:10:12.153Z,98.96
2023-12-09T19:12:39.786Z,99.14
2023-12-09T19:15:09.570Z,99.24
2023-12-09T19:17:37.363Z,99.48
2023-12-09T19:20:08.223Z,98.97
2023-12-09T19:22:35.910Z,99.12
2023-12-09T19:25:03.509Z,99.04
2023-12-09T19:27:31.137Z,99.05
2023-12-09T19:29:58.703Z,99.02
2023-12-09T19:32:28.045Z,99.04
2023-12-09T19:34:56.087Z,98.76
2023-12-09T19:37:25.228Z,98.82
2023-12-09T19:39:52.927Z,98.61
2023-12-09T19:42:21.115Z,98.85
2023-12-09T19:44:48.781Z,98.46
2023-12-09T19:47:16.428Z,98.90
2023-12-09T19:49:44.203Z,98.95
2023-12-09T19:52:11.835Z,98.61
2023-12-09T19:54:40.804Z,98.78
2023-12-09T19:57:09.075Z,99.03
2023-12-09T19:59:36.729Z,99.26
2023-12-09T20:02:04.399Z,99.46
2023-12-09T20:04:32.018Z,98.96
2023-12-09T20:06:59.702Z,98.90
2023-12-09T20:09:27.347Z,99.02
2023-12-09T20:11:56.326Z,98.93
2023-12-09T20:14:23.904Z,98.61
2023-12-09T20:16:51.507Z,98.86
2023-12-09T20:19:19.993Z,99.13
2023-12-09T20:21:49.665Z,99.25
2023-12-09T20:24:17.356Z,99.30
2023-12-09T20:26:45.127Z,99.11
2023-12-09T20:29:14.333Z,99.38
2023-12-09T20:31:43.447Z,99.18
2023-12-09T20:34:12.163Z,99.55
2023-12-09T20:36:40.103Z,99.65
2023-12-09T20:39:07.731Z,99.48
2023-12-09T20:41:35.531Z,99.43
2023-12-09T20:44:03.801Z,99.33
2023-12-09T20:46:33.279Z,99.38
2023-12-09T20:49:00.926Z,99.72
2023-12-09T20:51:30.403Z,99.92
2023-12-09T20:53:58.057Z,99.83
2023-12-09T20:56:25.713Z,99.70
2023-12-09T20:58:53.276Z,99.46
2023-12-09T21:01:21.033Z,99.72
2023-12-09T21:03:50.101Z,99.69
2023-12-09T21:06:18.146Z,99.00
2023-12-09T21:08:45.754Z,99.69
2023-12-09T21:11:14.771Z,99.59
2023-12-09T21:13:41.878Z,99.50
2023-12-09T21:16:10.148Z,99.62
2023-12-09T21:18:38.002Z,99.78
2023-12-09T21:21:07.447Z,99.61
2023-12-09T21:23:35.246Z,99.36
2023-12-09T21:26:02.840Z,99.62
2023-12-09T21:28:30.392Z,99.41
2023-12-09T21:30:58.135Z,99.77
2023-12-09T21:33:26.628Z,99.49
2023-12-09T21:35:54.331Z,100.00
2023-12-09T21:38:23.188Z,99.83
2023-12-09T21:40:50.974Z,100.00
2023-12-09T21:43:18.549Z,99.78
2023-12-09T21:45:46.182Z,99.71
2023-12-09T21:48:15.841Z,99.86
2023-12-09T21:50:43.647Z,99.96
2023-12-09T21:53:11.276Z,99.91
2023-12-09T21:55:41.554Z,100.00
2023-12-09T21:58:11.189Z,100.00
2023-12-09T22:00:38.945Z,99.52
2023-12-09T22:03:06.738Z,99.89
2023-12-09T22:05:35.687Z,99.80
2023-12-09T22:08:03.265Z,100.00
2023-12-09T22:10:30.852Z,100.00
2023-12-09T22:12:59.853Z,100.00
2023-12-09T22:15:27.555Z,100.00
2023-12-09T22:17:55.378Z,100.00
2023-12-09T22:20:23.069Z,100.00
2023-12-09T22:22:54.618Z,100.00
2023-12-09T22:25:23.524Z,100.00
2023-12-09T22:27:51.138Z,100.00
2023-12-09T22:30:20.370Z,100.00
2023-12-09T22:32:48.048Z,100.00
2023-12-09T22:35:15.917Z,100.00
2023-12-09T22:37:43.529Z,100.00
2023-12-09T22:40:11.737Z,100.00
2023-12-09T22:42:39.475Z,100.00
2023-12-09T22:45:08.147Z,100.00
2023-12-09T22:47:37.544Z,100.00
2023-12-09T22:50:06.087Z,100.00
2023-12-09T22:52:34.111Z,100.00
2023-12-09T22:55:01.714Z,100.00
2023-12-09T22:57:29.404Z,100.00
2023-12-09T22:59:57.068Z,100.00
2023-12-09T23:02:24.861Z,100.00
2023-12-09T23:04:53.870Z,100.00
2023-12-09T23:07:21.500Z,100.00
2023-12-09T23:09:49.128Z,100.00
2023-12-09T23:12:16.790Z,100.00
2023-12-09T23:14:44.391Z,100.00
2023-12-09T23:17:11.960Z,100.00
2023-12-09T23:19:42.098Z,100.00
2023-12-09T23:22:10.948Z,100.00
2023-12-09T23:24:38.583Z,100.00
2023-12-09T23:27:07.051Z,100.00
2023-12-09T23:29:34.863Z,100.00
2023-12-09T23:32:02.484Z,100.00
2023-12-09T23:34:30.109Z,100.00
2023-12-09T23:36:57.761Z,100.00
2023-12-09T23:39:26.794Z,100.00
2023-12-09T23:41:54.443Z,100.00
2023-12-09T23:44:23.062Z,100.00
2023-12-09T23:46:50.667Z,100.00
2023-12-09T23:49:18.234Z,100.00
2023-12-09T23:51:45.910Z,100.00
2023-12-09T23:54:13.581Z,100.00
2023-12-09T23:56:42.769Z,100.00
2023-12-09T23:59:10.328Z,100.00
